createdAt,value
2018-09-14T00:00:23.113Z,87.10
2018-09-14T00:02:54.333Z,87.80
2018-09-14T00:05:25.581Z,87.90
2018-09-14T00:07:56.793Z,87.60
2018-09-14T00:10:28.069Z,86.90
2018-09-14T00:12:59.305Z,87.10
2018-09-14T00:15:30.536Z,87.40
2018-09-14T00:18:01.765Z,86.50
2018-09-14T00:20:33.001Z,86.00
2018-09-14T00:23:04.225Z,86.00
2018-09-14T00:25:35.451Z,86.10
2018-09-14T00:28:06.661Z,86.30
2018-09-14T00:30:37.873Z,86.30
2018-09-14T00:33:09.117Z,86.20
2018-09-14T00:35:40.372Z,86.90
2018-09-14T00:38:11.598Z,87.30
2018-09-14T00:40:43.012Z,86.80
2018-09-14T00:43:14.365Z,87.20
2018-09-14T00:45:45.591Z,86.70
2018-09-14T00:48:16.945Z,86.50
2018-09-14T00:50:48.193Z,86.90
2018-09-14T00:53:19.401Z,85.90
2018-09-14T00:55:50.636Z,86.90
2018-09-14T00:58:21.880Z,87.00
2018-09-14T01:00:53.111Z,86.90
2018-09-14T01:03:24.325Z,87.60
2018-09-14T01:05:55.546Z,87.30
2018-09-14T01:08:26.784Z,86.70
2018-09-14T01:10:58.025Z,86.70
2018-09-14T01:13:29.272Z,86.40
2018-09-14T01:16:00.497Z,86.00
2018-09-14T01:18:31.734Z,87.00
2018-09-14T01:21:02.971Z,86.50
2018-09-14T01:23:34.184Z,86.40
2018-09-14T01:26:05.595Z,86.60
2018-09-14T01:28:36.816Z,86.50
2018-09-14T01:31:08.050Z,86.50
2018-09-14T01:33:39.260Z,85.90
2018-09-14T01:36:11.149Z,86.60
2018-09-14T01:38:42.450Z,86.80
2018-09-14T01:41:13.695Z,86.50
2018-09-14T01:43:44.931Z,87.70
2018-09-14T01:46:16.195Z,87.40
2018-09-14T01:48:47.430Z,86.80
2018-09-14T01:51:18.650Z,87.10
2018-09-14T01:53:49.877Z,86.50
2018-09-14T01:56:21.100Z,86.50
2018-09-14T01:58:52.408Z,86.80
2018-09-14T02:01:23.653Z,88.00
2018-09-14T02:03:54.870Z,88.10
2018-09-14T02:06:26.596Z,88.20
2018-09-14T02:08:57.809Z,87.00
2018-09-14T02:11:29.044Z,87.00
2018-09-14T02:14:00.259Z,86.90
2018-09-14T02:16:31.574Z,87.60
2018-09-14T02:19:02.938Z,86.60
2018-09-14T02:21:34.187Z,85.80
2018-09-14T02:24:05.417Z,86.30
2018-09-14T02:26:36.621Z,88.40
2018-09-14T02:29:07.841Z,88.10
2018-09-14T02:31:39.177Z,86.80
2018-09-14T02:34:10.378Z,87.20
2018-09-14T02:36:41.631Z,88.00
2018-09-14T02:39:12.841Z,88.20
2018-09-14T02:41:44.296Z,87.10
2018-09-14T02:44:15.499Z,87.30
2018-09-14T02:46:46.734Z,87.50
2018-09-14T02:49:17.973Z,87.40
2018-09-14T02:51:49.191Z,86.90
2018-09-14T02:54:20.506Z,87.60
2018-09-14T02:56:51.717Z,87.90
2018-09-14T02:59:22.955Z,87.00
2018-09-14T03:01:54.166Z,87.10
2018-09-14T03:04:25.408Z,87.80
2018-09-14T03:06:56.689Z,87.90
2018-09-14T03:09:27.902Z,87.00
2018-09-14T03:11:59.132Z,87.10
2018-09-14T03:14:30.463Z,88.00
2018-09-14T03:17:01.700Z,87.10
2018-09-14T03:19:33.002Z,87.60
2018-09-14T03:22:04.225Z,87.40
2018-09-14T03:24:35.445Z,87.30
2018-09-14T03:27:06.714Z,87.70
2018-09-14T03:29:37.923Z,87.90
2018-09-14T03:32:09.251Z,87.50
2018-09-14T03:34:40.459Z,87.50
2018-09-14T03:37:11.677Z,87.10
2018-09-14T03:39:42.886Z,86.70
2018-09-14T03:42:14.143Z,86.90
2018-09-14T03:44:45.418Z,87.60
2018-09-14T03:47:16.622Z,87.50
2018-09-14T03:49:47.850Z,87.40
2018-09-14T03:52:19.095Z,87.50
2018-09-14T03:54:50.361Z,87.70
2018-09-14T03:57:21.585Z,86.80
2018-09-14T03:59:52.795Z,86.40
2018-09-14T04:02:24.020Z,86.40
2018-09-14T04:04:55.243Z,86.40
2018-09-14T04:07:26.517Z,86.70
2018-09-14T04:09:57.744Z,87.10
2018-09-14T04:12:28.969Z,86.40
2018-09-14T04:15:00.251Z,86.20
2018-09-14T04:17:31.474Z,86.30
2018-09-14T04:20:02.718Z,86.20
2018-09-14T04:22:33.925Z,86.80
2018-09-14T04:25:05.145Z,86.60
2018-09-14T04:27:36.366Z,86.10
2018-09-14T04:30:07.592Z,86.40
2018-09-14T04:32:38.842Z,86.20
2018-09-14T04:35:10.172Z,86.10
2018-09-14T04:37:41.399Z,86.00
2018-09-14T04:40:12.606Z,86.80
2018-09-14T04:42:43.822Z,86.90
2018-09-14T04:45:15.038Z,86.40
2018-09-14T04:47:46.246Z,87.00
2018-09-14T04:50:17.457Z,86.40
2018-09-14T04:52:48.669Z,86.20
2018-09-14T04:55:19.893Z,86.70
2018-09-14T04:57:51.200Z,86.70
2018-09-14T05:00:22.450Z,86.60
2018-09-14T05:02:53.698Z,86.40
2018-09-14T05:05:24.902Z,86.60
2018-09-14T05:07:56.117Z,87.20
2018-09-14T05:10:27.330Z,86.60
2018-09-14T05:12:58.554Z,86.70
2018-09-14T05:15:29.756Z,87.20
2018-09-14T05:18:02.485Z,85.80
2018-09-14T05:20:33.725Z,86.00
2018-09-14T05:23:04.985Z,86.70
2018-09-14T05:25:36.211Z,87.20
2018-09-14T05:28:07.421Z,86.80
2018-09-14T05:30:38.660Z,86.10
2018-09-14T05:33:09.869Z,86.00
2018-09-14T05:35:41.096Z,86.00
2018-09-14T05:38:12.521Z,86.40
2018-09-14T05:40:43.934Z,86.60
2018-09-14T05:43:15.218Z,86.30
2018-09-14T05:45:47.612Z,86.50
2018-09-14T05:48:18.802Z,86.50
2018-09-14T05:50:51.587Z,86.30
2018-09-14T05:53:22.797Z,86.80
2018-09-14T05:55:54.054Z,87.50
2018-09-14T05:58:25.278Z,87.50
2018-09-14T06:00:56.662Z,87.60
2018-09-14T06:03:27.880Z,87.00
2018-09-14T06:05:59.131Z,87.70
2018-09-14T06:08:30.381Z,86.80
2018-09-14T06:11:01.582Z,87.00
2018-09-14T06:13:32.790Z,87.20
2018-09-14T06:16:04.053Z,86.80
2018-09-14T06:18:35.275Z,87.30
2018-09-14T06:21:06.498Z,86.60
2018-09-14T06:23:37.758Z,86.90
2018-09-14T06:26:08.980Z,86.80
2018-09-14T06:28:40.199Z,86.50
2018-09-14T06:31:11.485Z,86.70
2018-09-14T06:33:42.690Z,86.60
2018-09-14T06:36:13.914Z,86.30
2018-09-14T06:38:45.114Z,86.80
2018-09-14T06:41:16.374Z,86.70
2018-09-14T06:43:47.618Z,86.40
2018-09-14T06:46:18.846Z,86.00
2018-09-14T06:48:50.064Z,85.40
2018-09-14T06:51:21.285Z,85.10
2018-09-14T06:53:52.505Z,85.20
2018-09-14T06:56:23.749Z,85.30
2018-09-14T06:58:54.963Z,85.20
2018-09-14T07:01:26.186Z,84.70
2018-09-14T07:03:57.593Z,85.10
2018-09-14T07:06:28.907Z,85.10
2018-09-14T07:09:00.069Z,85.10
2018-09-14T07:11:31.337Z,85.40
2018-09-14T07:14:02.498Z,85.40
2018-09-14T07:16:33.814Z,84.60
2018-09-14T07:19:05.018Z,84.10
2018-09-14T07:21:36.281Z,84.60
2018-09-14T07:24:07.446Z,84.70
2018-09-14T07:26:38.654Z,85.10
2018-09-14T07:29:09.924Z,84.50
2018-09-14T07:31:41.191Z,85.20
2018-09-14T07:34:12.303Z,83.90
2018-09-14T07:36:43.584Z,84.10
2018-09-14T07:39:14.800Z,83.50
2018-09-14T07:41:46.011Z,83.80
2018-09-14T07:44:17.321Z,82.60
2018-09-14T07:46:48.551Z,82.10
2018-09-14T07:49:19.763Z,83.90
2018-09-14T07:51:50.985Z,83.70
2018-09-14T07:54:22.193Z,83.80
2018-09-14T07:56:53.457Z,82.90
2018-09-14T07:59:24.678Z,82.30
2018-09-14T08:01:55.888Z,82.30
2018-09-14T08:04:27.094Z,82.20
2018-09-14T08:06:58.325Z,83.20
2018-09-14T08:09:29.521Z,82.40
2018-09-14T08:12:00.789Z,81.10
2018-09-14T08:14:31.974Z,82.20
2018-09-14T08:17:03.178Z,81.80
2018-09-14T08:19:34.402Z,81.30
2018-09-14T08:22:05.604Z,82.20
2018-09-14T08:24:36.866Z,82.00
2018-09-14T08:27:08.146Z,80.80
2018-09-14T08:29:39.334Z,80.50
2018-09-14T08:32:10.552Z,79.80
2018-09-14T08:34:41.815Z,80.30
2018-09-14T08:37:13.071Z,80.40
2018-09-14T08:39:44.289Z,79.40
2018-09-14T08:42:15.505Z,79.60
2018-09-14T08:44:46.814Z,79.80
2018-09-14T08:47:18.027Z,80.00
2018-09-14T08:49:49.275Z,79.30
2018-09-14T08:52:20.489Z,79.10
2018-09-14T08:54:51.701Z,77.80
2018-09-14T08:57:23.014Z,77.90
2018-09-14T08:59:54.214Z,78.40
2018-09-14T09:02:25.422Z,76.50
2018-09-14T09:04:56.703Z,76.80
2018-09-14T09:07:27.923Z,75.40
2018-09-14T09:09:59.138Z,76.80
2018-09-14T09:12:30.357Z,74.70
2018-09-14T09:15:01.623Z,74.00
2018-09-14T09:17:32.829Z,74.60
2018-09-14T09:20:04.156Z,74.20
2018-09-14T09:22:35.399Z,74.70
2018-09-14T09:25:06.706Z,74.80
2018-09-14T09:27:37.917Z,73.20
2018-09-14T09:30:09.233Z,74.20
2018-09-14T09:32:40.441Z,74.40
2018-09-14T09:35:11.665Z,74.90
2018-09-14T09:37:42.884Z,75.20
2018-09-14T09:40:14.114Z,74.00
2018-09-14T09:42:45.316Z,74.60
2018-09-14T09:45:16.561Z,74.20
2018-09-14T09:47:47.773Z,74.70
2018-09-14T09:50:19.031Z,73.90
2018-09-14T09:52:50.265Z,74.40
2018-09-14T09:55:21.536Z,72.80
2018-09-14T09:57:52.765Z,72.70
2018-09-14T10:00:29.696Z,72.60
2018-09-14T10:03:06.705Z,71.30
2018-09-14T10:05:43.782Z,69.60
2018-09-14T10:08:15.008Z,69.90
2018-09-14T10:10:46.264Z,71.30
2018-09-14T10:13:17.480Z,70.80
2018-09-14T10:15:48.825Z,69.50
2018-09-14T10:18:20.051Z,69.50
2018-09-14T10:20:51.331Z,70.60
2018-09-14T10:23:22.546Z,71.20
2018-09-14T10:25:53.791Z,71.70
2018-09-14T10:28:25.002Z,71.60
2018-09-14T10:30:56.231Z,70.70
2018-09-14T10:33:27.456Z,69.40
2018-09-14T10:35:58.666Z,70.90
2018-09-14T10:38:29.906Z,69.20
2018-09-14T10:41:01.374Z,69.80
2018-09-14T10:43:32.597Z,69.40
2018-09-14T10:46:03.829Z,70.10
2018-09-14T10:48:35.041Z,69.10
2018-09-14T10:51:06.270Z,69.40
2018-09-14T10:53:37.497Z,69.20
2018-09-14T10:56:08.719Z,71.00
2018-09-14T10:58:42.689Z,69.70
2018-09-14T11:01:14.957Z,68.40
2018-09-14T11:03:46.177Z,67.30
2018-09-14T11:06:17.400Z,66.50
2018-09-14T11:08:48.614Z,68.50
2018-09-14T11:11:19.813Z,66.10
2018-09-14T11:13:51.136Z,64.50
2018-09-14T11:16:22.338Z,67.10
2018-09-14T11:18:53.611Z,64.80
2018-09-14T11:21:24.800Z,61.80
2018-09-14T11:23:56.032Z,64.90
2018-09-14T11:26:27.254Z,67.10
2018-09-14T11:28:58.503Z,65.40
2018-09-14T11:31:29.741Z,64.70
2018-09-14T11:34:01.041Z,63.50
2018-09-14T11:36:32.277Z,64.30
2018-09-14T11:39:03.577Z,66.10
2018-09-14T11:41:34.785Z,64.90
2018-09-14T11:44:05.994Z,65.50
2018-09-14T11:46:37.203Z,64.90
2018-09-14T11:49:08.449Z,64.60
2018-09-14T11:51:39.663Z,64.20
2018-09-14T11:54:10.922Z,64.70
2018-09-14T11:56:42.189Z,63.30
2018-09-14T11:59:13.424Z,63.00
2018-09-14T12:01:44.716Z,62.30
2018-09-14T12:04:15.993Z,62.00
2018-09-14T12:06:47.163Z,65.70
2018-09-14T12:09:18.395Z,62.30
2018-09-14T12:11:49.615Z,62.80
2018-09-14T12:14:20.817Z,62.20
2018-09-14T12:16:52.028Z,59.80
2018-09-14T12:19:23.252Z,60.30
2018-09-14T12:21:54.458Z,60.60
2018-09-14T12:24:25.657Z,60.70
2018-09-14T12:26:56.873Z,59.20
2018-09-14T12:29:28.115Z,60.30
2018-09-14T12:31:59.365Z,60.20
2018-09-14T12:34:30.583Z,60.10
2018-09-14T12:37:01.811Z,58.80
2018-09-14T12:39:33.033Z,59.00
2018-09-14T12:42:04.265Z,61.70
2018-09-14T12:44:35.490Z,61.80
2018-09-14T12:47:06.722Z,60.20
2018-09-14T12:49:37.939Z,60.80
2018-09-14T12:52:09.156Z,60.40
2018-09-14T12:54:40.362Z,60.40
2018-09-14T12:57:11.634Z,62.20
2018-09-14T12:59:42.861Z,62.10
2018-09-14T13:02:14.074Z,61.90
2018-09-14T13:04:45.299Z,60.50
2018-09-14T13:07:16.514Z,60.80
2018-09-14T13:09:47.843Z,62.70
2018-09-14T13:12:19.054Z,63.10
2018-09-14T13:14:50.311Z,61.70
2018-09-14T13:17:21.505Z,60.90
2018-09-14T13:19:52.814Z,59.40
2018-09-14T13:22:24.021Z,61.80
2018-09-14T13:24:55.258Z,59.80
2018-09-14T13:27:26.461Z,58.70
2018-09-14T13:29:57.696Z,60.10
2018-09-14T13:32:28.936Z,60.80
2018-09-14T13:35:00.147Z,58.00
2018-09-14T13:37:31.358Z,59.00
2018-09-14T13:40:02.636Z,58.50
2018-09-14T13:42:33.793Z,60.60
2018-09-14T13:45:05.036Z,60.40
2018-09-14T13:47:36.241Z,58.80
2018-09-14T13:50:07.469Z,58.90
2018-09-14T13:52:38.729Z,60.90
2018-09-14T13:55:09.939Z,59.80
2018-09-14T13:57:41.161Z,60.50
2018-09-14T14:00:12.373Z,61.80
2018-09-14T14:02:43.626Z,60.30
2018-09-14T14:05:14.844Z,60.80
2018-09-14T14:07:46.177Z,58.50
2018-09-14T14:10:17.451Z,58.90
2018-09-14T14:12:48.653Z,58.30
2018-09-14T14:15:19.881Z,58.80
2018-09-14T14:17:51.146Z,59.10
2018-09-14T14:20:22.366Z,58.20
2018-09-14T14:22:53.591Z,59.40
2018-09-14T14:25:24.802Z,59.30
2018-09-14T14:27:56.036Z,60.50
2018-09-14T14:30:27.237Z,59.30
2018-09-14T14:32:58.445Z,58.20
2018-09-14T14:35:29.650Z,57.90
2018-09-14T14:38:00.872Z,59.80
2018-09-14T14:40:32.110Z,57.50
2018-09-14T14:43:03.410Z,59.00
2018-09-14T14:45:35.451Z,57.10
2018-09-14T14:48:06.653Z,57.40
2018-09-14T14:50:37.879Z,58.00
2018-09-14T14:53:09.095Z,58.70
2018-09-14T14:55:40.342Z,59.40
2018-09-14T14:58:11.553Z,59.60
2018-09-14T15:00:42.780Z,58.40
2018-09-14T15:03:13.997Z,59.10
2018-09-14T15:05:45.247Z,57.80
2018-09-14T15:08:16.488Z,58.30
2018-09-14T15:10:48.519Z,58.60
2018-09-14T15:13:19.774Z,58.10
2018-09-14T15:15:51.039Z,58.20
2018-09-14T15:18:22.259Z,58.10
2018-09-14T15:20:53.469Z,60.70
2018-09-14T15:23:24.683Z,57.90
2018-09-14T15:25:55.908Z,59.80
2018-09-14T15:28:27.114Z,60.70
2018-09-14T15:30:58.317Z,57.20
2018-09-14T15:33:29.549Z,58.00
2018-09-14T15:36:00.847Z,58.60
2018-09-14T15:38:32.072Z,58.70
2018-09-14T15:41:03.285Z,57.60
2018-09-14T15:43:34.497Z,59.30
2018-09-14T15:46:05.727Z,58.80
2018-09-14T15:48:36.958Z,57.80
2018-09-14T15:51:08.187Z,58.30
2018-09-14T15:53:39.398Z,58.00
2018-09-14T15:56:10.617Z,57.90
2018-09-14T15:58:41.854Z,58.40
2018-09-14T16:01:13.068Z,58.80
2018-09-14T16:03:44.273Z,58.80
2018-09-14T16:06:15.482Z,59.70
2018-09-14T16:08:46.717Z,58.50
2018-09-14T16:11:18.039Z,59.00
2018-09-14T16:13:49.279Z,59.20
2018-09-14T16:16:20.500Z,59.60
2018-09-14T16:18:51.832Z,59.10
2018-09-14T16:21:23.014Z,60.30
2018-09-14T16:23:54.270Z,59.90
2018-09-14T16:26:25.559Z,63.00
2018-09-14T16:28:56.795Z,64.70
2018-09-14T16:31:28.132Z,65.20
2018-09-14T16:33:59.470Z,65.90
2018-09-14T16:36:30.689Z,65.70
2018-09-14T16:39:02.023Z,66.70
2018-09-14T16:41:33.241Z,67.20
2018-09-14T16:44:04.452Z,67.40
2018-09-14T16:46:35.807Z,67.40
2018-09-14T16:49:07.588Z,67.70
2018-09-14T16:51:38.882Z,67.40
2018-09-14T16:54:10.033Z,67.60
2018-09-14T16:56:41.308Z,67.80
2018-09-14T16:59:12.728Z,68.40
2018-09-14T17:01:43.940Z,68.60
2018-09-14T17:04:15.177Z,68.70
2018-09-14T17:06:46.522Z,69.20
2018-09-14T17:09:17.786Z,68.90
2018-09-14T17:11:49.066Z,69.10
2018-09-14T17:14:20.343Z,69.60
2018-09-14T17:16:51.586Z,69.30
2018-09-14T17:19:22.823Z,69.40
2018-09-14T17:21:54.025Z,69.50
2018-09-14T17:24:25.245Z,69.70
2018-09-14T17:26:56.453Z,70.60
2018-09-14T17:29:27.688Z,69.80
2018-09-14T17:31:58.936Z,70.50
2018-09-14T17:34:30.165Z,70.70
2018-09-14T17:37:01.722Z,71.10
2018-09-14T17:39:32.885Z,71.20
2018-09-14T17:42:04.093Z,71.40
2018-09-14T17:44:35.352Z,71.10
2018-09-14T17:47:06.579Z,71.90
2018-09-14T17:49:37.801Z,71.70
2018-09-14T17:52:09.028Z,72.00
2018-09-14T17:54:40.233Z,72.40
2018-09-14T17:57:11.444Z,72.20
2018-09-14T17:59:42.739Z,73.20
2018-09-14T18:02:14.002Z,72.50
2018-09-14T18:04:45.253Z,72.60
2018-09-14T18:07:16.554Z,73.40
2018-09-14T18:09:47.814Z,74.20
2018-09-14T18:12:19.067Z,72.80
2018-09-14T18:14:50.323Z,74.40
2018-09-14T18:17:21.557Z,73.50
2018-09-14T18:19:52.777Z,72.60
2018-09-14T18:22:23.981Z,72.90
2018-09-14T18:24:55.185Z,73.90
2018-09-14T18:27:26.430Z,73.20
2018-09-14T18:29:57.633Z,72.90
2018-09-14T18:32:28.925Z,72.90
2018-09-14T18:35:00.159Z,74.10
2018-09-14T18:37:31.369Z,74.30
2018-09-14T18:40:02.565Z,75.00
2018-09-14T18:42:33.784Z,74.00
2018-09-14T18:45:05.009Z,74.60
2018-09-14T18:47:36.396Z,74.60
2018-09-14T18:50:07.649Z,74.70
2018-09-14T18:52:38.901Z,75.90
2018-09-14T18:55:10.127Z,75.40
2018-09-14T18:57:41.421Z,75.70
2018-09-14T19:00:12.639Z,76.30
2018-09-14T19:02:43.871Z,75.80
2018-09-14T19:05:15.110Z,76.70
2018-09-14T19:07:46.285Z,76.70
2018-09-14T19:10:17.522Z,77.40
2018-09-14T19:12:48.727Z,76.70
2018-09-14T19:15:20.029Z,76.90
2018-09-14T19:17:51.227Z,77.10
2018-09-14T19:20:22.543Z,77.10
2018-09-14T19:22:53.821Z,77.30
2018-09-14T19:25:25.048Z,78.20
2018-09-14T19:27:56.310Z,78.00
2018-09-14T19:30:27.513Z,78.10
2018-09-14T19:32:58.758Z,77.70
2018-09-14T19:35:29.999Z,77.80
2018-09-14T19:38:01.253Z,78.30
2018-09-14T19:40:32.640Z,78.20
2018-09-14T19:43:03.869Z,78.00
2018-09-14T19:45:35.106Z,77.90
2018-09-14T19:48:06.317Z,77.80
2018-09-14T19:50:37.648Z,78.30
2018-09-14T19:53:08.857Z,77.80
2018-09-14T19:55:40.192Z,78.20
2018-09-14T19:58:11.505Z,77.70
2018-09-14T20:00:42.727Z,78.40
2018-09-14T20:03:13.961Z,78.60
2018-09-14T20:05:45.185Z,78.60
2018-09-14T20:08:16.952Z,79.00
2018-09-14T20:10:48.267Z,79.00
2018-09-14T20:13:19.506Z,79.70
2018-09-14T20:15:50.717Z,79.20
2018-09-14T20:18:21.958Z,79.00
2018-09-14T20:20:53.146Z,78.80
2018-09-14T20:23:24.389Z,79.50
2018-09-14T20:25:55.597Z,80.00
2018-09-14T20:28:26.822Z,79.10
2018-09-14T20:30:58.025Z,79.60
2018-09-14T20:33:29.270Z,78.80
2018-09-14T20:36:00.490Z,80.10
2018-09-14T20:38:31.756Z,79.30
2018-09-14T20:41:03.020Z,80.70
2018-09-14T20:43:34.244Z,80.50
2018-09-14T20:46:05.453Z,80.20
2018-09-14T20:48:36.745Z,80.60
2018-09-14T20:51:07.967Z,80.30
2018-09-14T20:53:39.189Z,80.90
2018-09-14T20:56:10.411Z,82.40
2018-09-14T20:58:41.650Z,81.20
2018-09-14T21:01:12.846Z,81.50
2018-09-14T21:03:44.045Z,80.80
2018-09-14T21:06:15.241Z,81.10
2018-09-14T21:08:46.450Z,81.20
2018-09-14T21:11:17.773Z,81.40
2018-09-14T21:13:48.974Z,81.70
2018-09-14T21:16:20.193Z,81.70
2018-09-14T21:18:51.419Z,82.00
2018-09-14T21:21:25.873Z,81.90
2018-09-14T21:23:57.070Z,82.50
2018-09-14T21:26:28.321Z,82.50
2018-09-14T21:28:59.572Z,82.70
2018-09-14T21:31:30.782Z,83.00
2018-09-14T21:34:02.046Z,83.00
2018-09-14T21:36:33.259Z,82.80
2018-09-14T21:39:04.470Z,82.60
2018-09-14T21:41:35.801Z,82.90
2018-09-14T21:44:07.462Z,82.60
2018-09-14T21:46:38.878Z,82.70
2018-09-14T21:49:10.100Z,83.20
2018-09-14T21:51:41.327Z,83.50
2018-09-14T21:54:12.631Z,83.40
2018-09-14T21:56:43.801Z,83.10
2018-09-14T21:59:15.106Z,82.70
2018-09-14T22:01:46.329Z,83.40
2018-09-14T22:04:17.549Z,83.30
2018-09-14T22:06:48.779Z,82.60
2018-09-14T22:09:20.111Z,82.10
2018-09-14T22:11:51.323Z,82.60
2018-09-14T22:14:22.554Z,82.40
2018-09-14T22:16:53.766Z,82.20
2018-09-14T22:19:24.987Z,82.90
2018-09-14T22:21:56.254Z,83.40
2018-09-14T22:24:27.464Z,83.60
2018-09-14T22:26:58.689Z,83.70
2018-09-14T22:29:29.889Z,83.50
2018-09-14T22:32:01.113Z,83.80
2018-09-14T22:34:32.345Z,83.90
2018-09-14T22:37:03.574Z,84.10
2018-09-14T22:39:34.803Z,84.60
2018-09-14T22:42:06.202Z,84.40
2018-09-14T22:44:37.443Z,84.30
2018-09-14T22:47:08.671Z,84.40
2018-09-14T22:49:39.868Z,84.20
2018-09-14T22:52:11.124Z,84.10
2018-09-14T22:54:42.351Z,83.90
2018-09-14T22:57:13.653Z,84.60
2018-09-14T22:59:44.865Z,84.00
2018-09-14T23:02:16.066Z,84.10
2018-09-14T23:04:47.288Z,83.50
2018-09-14T23:07:18.512Z,83.70
2018-09-14T23:09:49.790Z,83.70
2018-09-14T23:12:21.010Z,83.50
2018-09-14T23:14:52.244Z,83.70
2018-09-14T23:17:23.461Z,84.30
2018-09-14T23:19:54.657Z,84.20
2018-09-14T23:22:25.937Z,83.70
2018-09-14T23:24:57.146Z,83.10
2018-09-14T23:27:28.385Z,83.50
2018-09-14T23:29:59.602Z,83.20
2018-09-14T23:32:30.909Z,83.10
2018-09-14T23:35:02.322Z,83.20
2018-09-14T23:37:33.545Z,83.40
2018-09-14T23:40:04.769Z,83.30
2018-09-14T23:42:35.979Z,83.50
2018-09-14T23:45:07.229Z,82.90
2018-09-14T23:47:38.433Z,82.80
2018-09-14T23:50:09.673Z,83.50
2018-09-14T23:52:40.881Z,83.90
2018-09-14T23:55:12.127Z,84.10
2018-09-14T23:57:43.342Z,84.50
